• Join FlightAware (Why Join?)
  • Login
  • US Flag 
Trick or treat! (Boo!!) 
03:13AM EDT


 

Airport Tracker/Info


-or-


 

Live Flight TrackerFlight Track Log ✈ FIN717 ✈ 23-Nov-2013 ✈ EFHK / HEL - LKPR / PRG

Flight Track Log - Related Links

Times and Time Zones

All times are in EST time to prevent confusion due to time zone crossing. See the FIN717 flight status page for this flight to view local times or setup timezone preferences in your user account.

Time Position Orientation Groundspeed Altitude Reporting Facility
EST Latitude Longitude Course Direction KTS MPH feet Rate Location/Type
10:50AM 60.0428 24.5737 215° Southwest  Level Estimated
10:51AM 59.9511 24.4452 215° Southwest  Level Estimated
10:52AM 59.8592 24.3175 215° Southwest  Level Estimated
10:53AM 59.7655 24.1880 215° Southwest  Level Estimated
10:54AM 59.6716 24.0593 215° Southwest  Level Estimated
10:55AM 59.5776 23.9313 215° Southwest  Level Estimated
10:56AM 59.4835 23.8039 215° Southwest  Level Estimated
10:57AM 59.3893 23.6773 214° Southwest  Level Estimated
10:58AM 59.2949 23.5515 214° Southwest  Level Estimated
10:59AM 59.2004 23.4263 214° Southwest  Level Estimated
11:00AM 59.1058 23.3017 214° Southwest  Level Estimated
11:01AM 59.0111 23.1779 214° Southwest  Level Estimated
11:02AM 58.9162 23.0548 214° Southwest  Level Estimated
11:03AM 58.8213 22.9323 214° Southwest  Level Estimated
11:04AM 58.7262 22.8105 214° Southwest  Level Estimated
11:05AM 58.6310 22.6894 214° Southwest  Level Estimated
11:06AM 58.5357 22.5689 213° Southwest  Level Estimated
11:07AM 58.4403 22.4491 213° Southwest  Level Estimated
11:08AM 58.3448 22.3299 213° Southwest  Level Estimated
11:09AM 58.2491 22.2113 213° Southwest  Level Estimated
11:10AM 58.1534 22.0935 213° Southwest  Level Estimated
11:11AM 58.0575 21.9762 213° Southwest  Level Estimated
11:12AM 57.9616 21.8596 213° Southwest  Level Estimated
11:13AM 57.8655 21.7436 213° Southwest  Level Estimated
11:14AM 57.7693 21.6282 213° Southwest  Level Estimated
11:15AM 57.6731 21.5134 213° Southwest  Level Estimated
11:16AM 57.5767 21.3992 212° Southwest  Level Estimated
11:17AM 57.4802 21.2857 212° Southwest  Level Estimated
11:18AM 57.3836 21.1727 212° Southwest  Level Estimated
11:19AM 57.2869 21.0603 212° Southwest  Level Estimated
11:20AM 57.1902 20.9485 212° Southwest  Level Estimated
11:21AM 57.0933 20.8373 212° Southwest  Level Estimated
11:22AM 56.9963 20.7267 212° Southwest  Level Estimated
11:23AM 56.8992 20.6166 212° Southwest  Level Estimated
11:24AM 56.8021 20.5072 212° Southwest  Level Estimated
11:25AM 56.7048 20.3983 212° Southwest  Level Estimated
11:26AM 56.6074 20.2899 211° Southwest  Level Estimated
11:27AM 56.5100 20.1821 211° Southwest  Level Estimated
11:28AM 56.4124 20.0749 211° Southwest  Level Estimated
11:29AM 56.3148 19.9682 211° Southwest  Level Estimated
11:30AM 56.2170 19.8620 211° Southwest  Level Estimated
11:31AM 56.1192 19.7564 211° Southwest  Level Estimated
11:32AM 56.0213 19.6514 211° Southwest  Level Estimated
11:33AM 55.9233 19.5468 211° Southwest  Level Estimated
11:34AM 55.8252 19.4428 211° Southwest  Level Estimated
11:35AM 55.7271 19.3393 211° Southwest  Level Estimated
11:36AM 55.6288 19.2364 211° Southwest  Level Estimated
11:37AM 55.5304 19.1339 211° Southwest  Level Estimated
11:38AM 55.4320 19.0320 210° Southwest  Level Estimated
11:39AM 55.3335 18.9305 210° Southwest  Level Estimated
11:40AM 55.2349 18.8296 210° Southwest  Level Estimated
11:41AM 55.1362 18.7292 210° Southwest  Level Estimated
11:42AM 55.0374 18.6293 210° Southwest  Level Estimated
11:43AM 54.9386 18.5298 210° Southwest  Level Estimated
11:44AM 54.8397 18.4309 210° Southwest  Level Estimated
11:45AM 54.7407 18.3324 210° Southwest  Level Estimated
11:46AM 54.6425 18.2353 210° Southwest  Level Estimated
11:47AM 54.5443 18.1388 210° Southwest  Level Estimated
11:48AM 54.4460 18.0426 210° Southwest  Level Estimated
11:49AM 54.3476 17.9470 210° Southwest  Level Estimated
11:50AM 54.2492 17.8517 209° Southwest  Level Estimated
11:51AM 54.1507 17.7570 209° Southwest  Level Estimated
11:52AM 54.0521 17.6627 209° Southwest  Level Estimated
11:53AM 53.9534 17.5688 209° Southwest  Level Estimated
11:54AM 53.8546 17.4754 209° Southwest  Level Estimated
11:55AM 53.7558 17.3825 209° Southwest  Level Estimated
11:56AM 53.6569 17.2899 209° Southwest  Level Estimated
11:57AM 53.5580 17.1978 209° Southwest  Level Estimated
11:58AM 53.4589 17.1061 209° Southwest  Level Estimated
11:59AM 53.3598 17.0149 209° Southwest  Level Estimated
12:00PM 53.2607 16.9241 209° Southwest  Level Estimated
12:01PM 53.1614 16.8337 209° Southwest  Level Estimated
12:02PM 53.0621 16.7437 209° Southwest  Level Estimated
12:03PM 52.9627 16.6541 209° Southwest  Level Estimated
12:04PM 52.8633 16.5650 208° Southwest  Level Estimated
12:05PM 52.7638 16.4762 208° Southwest  Level Estimated
12:06PM 52.6642 16.3878 208° Southwest  Level Estimated
12:07PM 52.5646 16.2999 208° Southwest  Level Estimated
12:08PM 52.4649 16.2124 208° Southwest  Level Estimated
12:09PM 52.3651 16.1252 208° Southwest  Level Estimated
12:10PM 52.2653 16.0384 208° Southwest  Level Estimated
12:11PM 52.1654 15.9521 208° Southwest  Level Estimated
12:12PM 52.0654 15.8661 208° Southwest  Level Estimated
12:13PM 51.9654 15.7805 208° Southwest  Level Estimated
12:14PM 51.8653 15.6953 208° Southwest  Level Estimated
12:15PM 51.7652 15.6104 208° Southwest  Level Estimated
12:16PM 51.6650 15.5260 208° Southwest  Level Estimated
12:17PM 51.5647 15.4419 208° Southwest  Level Estimated
12:18PM 51.4644 15.3582 207° Southwest  Level Estimated
12:19PM 51.3640 15.2748 207° Southwest  Level Estimated
12:20PM 51.2636 15.1918 207° Southwest  Level Estimated
12:21PM 51.1631 15.1092 207° Southwest  Level Estimated
12:22PM 51.0625 15.0269 207° Southwest  Level Estimated
12:23PM 50.9619 14.9450 207° Southwest  Level Estimated
12:24PM 50.8613 14.8635 207° Southwest  Level Estimated
12:25PM 50.7605 14.7823 207° Southwest  Level Estimated
12:26PM 50.6597 14.7014 207° Southwest  Level Estimated
12:27PM 50.5589 14.6209 207° Southwest  Level Estimated
12:28PM 50.4580 14.5407 207° Southwest  Level Estimated
12:29PM 50.3571 14.4609 207° Southwest  Level Estimated
12:30PM 50.2560 14.3814 207° Southwest  Level Estimated
12:31PM 50.1550 14.3023 207° Southwest  Level Estimated
12:32PM 50.1008 14.2600 207° Southwest  Level Estimated
12:33PM 50.1008 14.2600 North  Level Estimated
12:34PM 50.1008 14.2600 North  Level Estimated
12:35PM 50.1008 14.2600 North  Level Estimated
12:36PM 50.1008 14.2600 North  Level Estimated
12:37PM 50.1008 14.2600 North  Level Estimated
12:38PM 50.1008 14.2600 North  Level Estimated
12:39PM 50.1008 14.2600 North  Level Estimated
12:40PM 50.1008 14.2600 North  Level Estimated
12:41PM 50.1008 14.2600 North  Level Estimated
12:42PM 50.1008 14.2600 North  Level Estimated
12:43PM 50.1008 14.2600 North  Level Estimated
12:44PM 50.1008 14.2600 North  Level Estimated
12:45PM 50.1008 14.2600 North  Level Estimated